sensor_id;sensor_type;location;lat;lon;timestamp;temperature;humidity
40289;DHT22;28991;52.028;5.526;2022-11-04T00:01:04;19.90;55.30
40289;DHT22;28991;52.028;5.526;2022-11-04T00:03:30;19.90;55.30
40289;DHT22;28991;52.028;5.526;2022-11-04T00:06:00;19.80;55.30
40289;DHT22;28991;52.028;5.526;2022-11-04T00:08:25;19.90;55.30
40289;DHT22;28991;52.028;5.526;2022-11-04T00:10:54;19.90;55.30
40289;DHT22;28991;52.028;5.526;2022-11-04T00:13:38;19.90;55.40
40289;DHT22;28991;52.028;5.526;2022-11-04T00:16:04;20.00;55.50
40289;DHT22;28991;52.028;5.526;2022-11-04T00:18:48;19.90;55.40
40289;DHT22;28991;52.028;5.526;2022-11-04T00:21:13;19.90;55.40
40289;DHT22;28991;52.028;5.526;2022-11-04T00:23:57;19.90;55.50
40289;DHT22;28991;52.028;5.526;2022-11-04T00:26:41;19.90;55.50
40289;DHT22;28991;52.028;5.526;2022-11-04T00:29:26;20.10;55.60
40289;DHT22;28991;52.028;5.526;2022-11-04T00:31:51;19.90;55.50
40289;DHT22;28991;52.028;5.526;2022-11-04T00:34:35;19.90;55.50
40289;DHT22;28991;52.028;5.526;2022-11-04T00:37:01;20.00;55.60
40289;DHT22;28991;52.028;5.526;2022-11-04T00:39:27;19.90;55.60
40289;DHT22;28991;52.028;5.526;2022-11-04T00:41:53;19.90;55.60
40289;DHT22;28991;52.028;5.526;2022-11-04T00:44:18;19.90;55.60
40289;DHT22;28991;52.028;5.526;2022-11-04T00:46:44;19.90;55.60
40289;DHT22;28991;52.028;5.526;2022-11-04T00:49:09;19.90;55.60
40289;DHT22;28991;52.028;5.526;2022-11-04T00:51:35;19.90;55.60
40289;DHT22;28991;52.028;5.526;2022-11-04T00:54:01;19.90;55.60
40289;DHT22;28991;52.028;5.526;2022-11-04T00:56:27;19.90;55.70
40289;DHT22;28991;52.028;5.526;2022-11-04T00:58:52;19.90;55.70
40289;DHT22;28991;52.028;5.526;2022-11-04T01:01:18;19.90;55.70
40289;DHT22;28991;52.028;5.526;2022-11-04T01:03:47;19.80;55.60
40289;DHT22;28991;52.028;5.526;2022-11-04T01:06:13;19.90;55.70
40289;DHT22;28991;52.028;5.526;2022-11-04T01:08:38;19.90;55.80
40289;DHT22;28991;52.028;5.526;2022-11-04T01:11:05;19.90;55.70
40289;DHT22;28991;52.028;5.526;2022-11-04T01:13:31;19.90;55.70
40289;DHT22;28991;52.028;5.526;2022-11-04T01:15:57;19.90;55.80
40289;DHT22;28991;52.028;5.526;2022-11-04T01:18:23;20.50;56.10
40289;DHT22;28991;52.028;5.526;2022-11-04T01:20:48;19.80;55.80
40289;DHT22;28991;52.028;5.526;2022-11-04T01:23:14;19.90;55.80
40289;DHT22;28991;52.028;5.526;2022-11-04T01:25:39;19.80;55.80
40289;DHT22;28991;52.028;5.526;2022-11-04T01:28:08;19.90;55.80
40289;DHT22;28991;52.028;5.526;2022-11-04T01:30:33;19.90;56.40
40289;DHT22;28991;52.028;5.526;2022-11-04T01:32:59;19.90;55.80
40289;DHT22;28991;52.028;5.526;2022-11-04T01:35:24;20.00;55.90
40289;DHT22;28991;52.028;5.526;2022-11-04T01:37:50;20.00;55.90
40289;DHT22;28991;52.028;5.526;2022-11-04T01:40:15;19.90;55.80
40289;DHT22;28991;52.028;5.526;2022-11-04T01:42:40;19.90;55.90
40289;DHT22;28991;52.028;5.526;2022-11-04T01:45:12;20.00;56.00
40289;DHT22;28991;52.028;5.526;2022-11-04T01:47:39;19.90;55.90
40289;DHT22;28991;52.028;5.526;2022-11-04T01:52:36;19.90;55.90
40289;DHT22;28991;52.028;5.526;2022-11-04T01:55:05;19.90;55.90
40289;DHT22;28991;52.028;5.526;2022-11-04T01:57:34;19.90;56.00
40289;DHT22;28991;52.028;5.526;2022-11-04T02:00:02;19.90;56.00
40289;DHT22;28991;52.028;5.526;2022-11-04T02:02:28;19.90;56.00
40289;DHT22;28991;52.028;5.526;2022-11-04T02:04:54;19.80;55.90
40289;DHT22;28991;52.028;5.526;2022-11-04T02:07:20;19.90;56.00
40289;DHT22;28991;52.028;5.526;2022-11-04T02:09:45;19.80;56.00
40289;DHT22;28991;52.028;5.526;2022-11-04T02:12:11;19.90;56.00
40289;DHT22;28991;52.028;5.526;2022-11-04T02:14:55;19.90;56.00
40289;DHT22;28991;52.028;5.526;2022-11-04T02:22:30;19.90;56.00
40289;DHT22;28991;52.028;5.526;2022-11-04T02:30:02;19.80;56.00
40289;DHT22;28991;52.028;5.526;2022-11-04T02:32:41;19.80;56.00
40289;DHT22;28991;52.028;5.526;2022-11-04T02:40:34;19.90;56.10
40289;DHT22;28991;52.028;5.526;2022-11-04T02:43:02;19.80;56.00
40289;DHT22;28991;52.028;5.526;2022-11-04T02:45:49;19.80;56.10
40289;DHT22;28991;52.028;5.526;2022-11-04T02:51:08;19.90;56.20
40289;DHT22;28991;52.028;5.526;2022-11-04T02:53:46;19.90;56.20
40289;DHT22;28991;52.028;5.526;2022-11-04T02:56:11;19.80;56.10
40289;DHT22;28991;52.028;5.526;2022-11-04T02:58:42;19.80;56.10
40289;DHT22;28991;52.028;5.526;2022-11-04T03:01:10;20.20;56.40
40289;DHT22;28991;52.028;5.526;2022-11-04T03:03:38;19.80;56.20
40289;DHT22;28991;52.028;5.526;2022-11-04T03:06:05;19.80;56.20
40289;DHT22;28991;52.028;5.526;2022-11-04T03:08:33;19.80;56.20
40289;DHT22;28991;52.028;5.526;2022-11-04T03:11:03;19.90;56.20
40289;DHT22;28991;52.028;5.526;2022-11-04T03:13:41;19.90;56.20
40289;DHT22;28991;52.028;5.526;2022-11-04T03:16:09;19.80;56.20
40289;DHT22;28991;52.028;5.526;2022-11-04T03:21:11;19.80;56.20
40289;DHT22;28991;52.028;5.526;2022-11-04T03:23:37;19.90;56.30
40289;DHT22;28991;52.028;5.526;2022-11-04T03:26:06;19.80;56.20
40289;DHT22;28991;52.028;5.526;2022-11-04T03:31:20;19.90;56.30
40289;DHT22;28991;52.028;5.526;2022-11-04T03:33:48;19.80;56.30
40289;DHT22;28991;52.028;5.526;2022-11-04T03:36:14;19.80;56.30
40289;DHT22;28991;52.028;5.526;2022-11-04T03:38:40;19.80;56.30
40289;DHT22;28991;52.028;5.526;2022-11-04T03:41:11;20.00;56.40
40289;DHT22;28991;52.028;5.526;2022-11-04T03:43:38;19.80;56.30
40289;DHT22;28991;52.028;5.526;2022-11-04T03:46:05;19.80;56.30
40289;DHT22;28991;52.028;5.526;2022-11-04T03:48:30;19.80;56.30
40289;DHT22;28991;52.028;5.526;2022-11-04T03:50:57;19.90;56.40
40289;DHT22;28991;52.028;5.526;2022-11-04T03:53:22;19.80;56.30
40289;DHT22;28991;52.028;5.526;2022-11-04T03:55:53;19.80;56.30
40289;DHT22;28991;52.028;5.526;2022-11-04T04:01:38;19.80;56.40
40289;DHT22;28991;52.028;5.526;2022-11-04T04:06:46;19.80;56.40
40289;DHT22;28991;52.028;5.526;2022-11-04T04:11:46;19.80;56.40
40289;DHT22;28991;52.028;5.526;2022-11-04T04:14:17;19.80;56.40
40289;DHT22;28991;52.028;5.526;2022-11-04T04:19:49;19.80;56.40
40289;DHT22;28991;52.028;5.526;2022-11-04T04:22:18;19.80;56.40
40289;DHT22;28991;52.028;5.526;2022-11-04T04:24:45;19.80;56.50
40289;DHT22;28991;52.028;5.526;2022-11-04T04:27:31;19.80;56.50
40289;DHT22;28991;52.028;5.526;2022-11-04T04:30:03;19.80;56.50
40289;DHT22;28991;52.028;5.526;2022-11-04T04:32:29;20.30;56.70
40289;DHT22;28991;52.028;5.526;2022-11-04T04:34:56;19.80;56.50
40289;DHT22;28991;52.028;5.526;2022-11-04T04:37:41;19.80;56.50
40289;DHT22;28991;52.028;5.526;2022-11-04T04:40:07;19.80;56.50
40289;DHT22;28991;52.028;5.526;2022-11-04T04:42:53;19.80;56.60
40289;DHT22;28991;52.028;5.526;2022-11-04T04:45:42;19.80;56.60
40289;DHT22;28991;52.028;5.526;2022-11-04T04:48:12;19.80;56.60
40289;DHT22;28991;52.028;5.526;2022-11-04T04:50:41;20.00;56.70
40289;DHT22;28991;52.028;5.526;2022-11-04T04:53:08;19.80;56.60
40289;DHT22;28991;52.028;5.526;2022-11-04T04:55:33;19.70;56.50
40289;DHT22;28991;52.028;5.526;2022-11-04T04:57:59;19.80;56.60
40289;DHT22;28991;52.028;5.526;2022-11-04T05:00:24;19.70;56.60
40289;DHT22;28991;52.028;5.526;2022-11-04T05:02:50;19.70;56.60
40289;DHT22;28991;52.028;5.526;2022-11-04T05:05:16;19.80;56.60
40289;DHT22;28991;52.028;5.526;2022-11-04T05:07:41;19.70;56.60
40289;DHT22;28991;52.028;5.526;2022-11-04T05:10:08;19.80;56.60
40289;DHT22;28991;52.028;5.526;2022-11-04T05:12:34;19.80;56.60
40289;DHT22;28991;52.028;5.526;2022-11-04T05:15:18;19.70;56.60
40289;DHT22;28991;52.028;5.526;2022-11-04T05:17:44;19.80;56.70
40289;DHT22;28991;52.028;5.526;2022-11-04T05:20:09;19.70;56.70
40289;DHT22;28991;52.028;5.526;2022-11-04T05:22:35;19.70;56.60
40289;DHT22;28991;52.028;5.526;2022-11-04T05:25:00;19.70;56.70
40289;DHT22;28991;52.028;5.526;2022-11-04T05:27:26;19.70;56.70
40289;DHT22;28991;52.028;5.526;2022-11-04T05:29:51;19.70;56.70
40289;DHT22;28991;52.028;5.526;2022-11-04T05:32:17;19.70;56.70
40289;DHT22;28991;52.028;5.526;2022-11-04T05:34:42;19.70;56.70
40289;DHT22;28991;52.028;5.526;2022-11-04T05:37:08;19.60;56.70
40289;DHT22;28991;52.028;5.526;2022-11-04T05:39:33;19.70;56.70
40289;DHT22;28991;52.028;5.526;2022-11-04T05:41:59;19.70;56.70
40289;DHT22;28991;52.028;5.526;2022-11-04T05:44:25;19.70;56.70
40289;DHT22;28991;52.028;5.526;2022-11-04T05:46:50;19.70;56.70
40289;DHT22;28991;52.028;5.526;2022-11-04T05:49:16;19.70;56.80
40289;DHT22;28991;52.028;5.526;2022-11-04T05:51:41;19.70;56.80
40289;DHT22;28991;52.028;5.526;2022-11-04T05:54:07;19.70;56.80
40289;DHT22;28991;52.028;5.526;2022-11-04T05:56:33;19.70;56.80
40289;DHT22;28991;52.028;5.526;2022-11-04T05:58:59;19.70;56.80
40289;DHT22;28991;52.028;5.526;2022-11-04T06:03:53;19.70;56.80
40289;DHT22;28991;52.028;5.526;2022-11-04T06:06:19;19.70;56.80
40289;DHT22;28991;52.028;5.526;2022-11-04T06:08:45;19.90;56.70
40289;DHT22;28991;52.028;5.526;2022-11-04T06:11:10;19.70;56.20
40289;DHT22;28991;52.028;5.526;2022-11-04T06:13:36;19.70;55.80
40289;DHT22;28991;52.028;5.526;2022-11-04T06:16:01;19.80;55.60
40289;DHT22;28991;52.028;5.526;2022-11-04T06:18:27;19.80;55.50
40289;DHT22;28991;52.028;5.526;2022-11-04T06:23:54;19.90;55.00
40289;DHT22;28991;52.028;5.526;2022-11-04T06:26:21;19.90;54.40
40289;DHT22;28991;52.028;5.526;2022-11-04T06:28:47;20.40;53.40
40289;DHT22;28991;52.028;5.526;2022-11-04T06:31:13;19.90;53.60
40289;DHT22;28991;52.028;5.526;2022-11-04T06:33:39;20.00;53.20
40289;DHT22;28991;52.028;5.526;2022-11-04T06:36:05;20.00;53.40
40289;DHT22;28991;52.028;5.526;2022-11-04T06:38:32;20.00;53.10
40289;DHT22;28991;52.028;5.526;2022-11-04T06:40:58;20.40;53.10
40289;DHT22;28991;52.028;5.526;2022-11-04T06:43:23;20.70;52.90
40289;DHT22;28991;52.028;5.526;2022-11-04T06:45:52;20.20;52.60
40289;DHT22;28991;52.028;5.526;2022-11-04T06:48:18;20.10;52.40
40289;DHT22;28991;52.028;5.526;2022-11-04T06:50:44;20.20;52.10
40289;DHT22;28991;52.028;5.526;2022-11-04T06:53:09;20.20;52.00
40289;DHT22;28991;52.028;5.526;2022-11-04T06:55:34;20.30;52.00
40289;DHT22;28991;52.028;5.526;2022-11-04T06:58:00;20.20;51.50
40289;DHT22;28991;52.028;5.526;2022-11-04T07:00:25;20.20;51.60
40289;DHT22;28991;52.028;5.526;2022-11-04T07:02:51;20.20;51.90
40289;DHT22;28991;52.028;5.526;2022-11-04T07:05:16;20.20;51.40
40289;DHT22;28991;52.028;5.526;2022-11-04T07:07:42;20.20;51.20
40289;DHT22;28991;52.028;5.526;2022-11-04T07:10:07;20.20;51.50
40289;DHT22;28991;52.028;5.526;2022-11-04T07:12:33;20.20;52.00
40289;DHT22;28991;52.028;5.526;2022-11-04T07:14:58;20.20;51.70
40289;DHT22;28991;52.028;5.526;2022-11-04T07:17:24;20.20;51.70
40289;DHT22;28991;52.028;5.526;2022-11-04T07:19:49;20.30;51.90
40289;DHT22;28991;52.028;5.526;2022-11-04T07:22:15;20.30;52.00
40289;DHT22;28991;52.028;5.526;2022-11-04T07:24:40;20.40;51.90
40289;DHT22;28991;52.028;5.526;2022-11-04T07:27:06;20.40;51.30
40289;DHT22;28991;52.028;5.526;2022-11-04T07:29:32;20.40;51.20
40289;DHT22;28991;52.028;5.526;2022-11-04T07:31:57;20.50;51.10
40289;DHT22;28991;52.028;5.526;2022-11-04T07:34:23;20.60;51.40
40289;DHT22;28991;52.028;5.526;2022-11-04T07:36:48;20.60;51.40
40289;DHT22;28991;52.028;5.526;2022-11-04T07:39:14;20.60;50.90
40289;DHT22;28991;52.028;5.526;2022-11-04T07:41:40;20.60;51.00
40289;DHT22;28991;52.028;5.526;2022-11-04T07:44:05;20.60;50.60
40289;DHT22;28991;52.028;5.526;2022-11-04T07:46:31;20.70;50.30
40289;DHT22;28991;52.028;5.526;2022-11-04T07:48:57;20.70;50.40
40289;DHT22;28991;52.028;5.526;2022-11-04T07:51:24;21.60;50.40
40289;DHT22;28991;52.028;5.526;2022-11-04T07:53:50;20.80;50.00
40289;DHT22;28991;52.028;5.526;2022-11-04T07:56:16;21.10;49.90
40289;DHT22;28991;52.028;5.526;2022-11-04T07:58:43;20.90;50.00
40289;DHT22;28991;52.028;5.526;2022-11-04T08:01:13;21.10;49.90
40289;DHT22;28991;52.028;5.526;2022-11-04T08:03:38;21.30;50.20
40289;DHT22;28991;52.028;5.526;2022-11-04T08:06:05;21.00;50.10
40289;DHT22;28991;52.028;5.526;2022-11-04T08:08:31;21.00;50.20
40289;DHT22;28991;52.028;5.526;2022-11-04T08:10:58;21.00;50.10
40289;DHT22;28991;52.028;5.526;2022-11-04T08:13:31;20.80;50.30
40289;DHT22;28991;52.028;5.526;2022-11-04T08:16:01;21.10;50.30
40289;DHT22;28991;52.028;5.526;2022-11-04T08:18:27;21.00;50.30
40289;DHT22;28991;52.028;5.526;2022-11-04T08:20:53;21.10;50.20
40289;DHT22;28991;52.028;5.526;2022-11-04T08:23:18;21.60;50.50
40289;DHT22;28991;52.028;5.526;2022-11-04T08:25:44;21.10;50.40
40289;DHT22;28991;52.028;5.526;2022-11-04T08:28:10;21.20;50.40
40289;DHT22;28991;52.028;5.526;2022-11-04T08:30:50;21.20;50.50
40289;DHT22;28991;52.028;5.526;2022-11-04T08:33:16;21.20;49.90
40289;DHT22;28991;52.028;5.526;2022-11-04T08:35:41;21.20;50.20
40289;DHT22;28991;52.028;5.526;2022-11-04T08:38:07;21.30;49.90
40289;DHT22;28991;52.028;5.526;2022-11-04T08:40:34;21.30;49.60
40289;DHT22;28991;52.028;5.526;2022-11-04T08:43:00;21.30;49.20
40289;DHT22;28991;52.028;5.526;2022-11-04T08:45:25;21.30;49.70
40289;DHT22;28991;52.028;5.526;2022-11-04T08:47:51;21.40;50.00
40289;DHT22;28991;52.028;5.526;2022-11-04T08:50:16;21.40;50.10
40289;DHT22;28991;52.028;5.526;2022-11-04T08:52:42;21.40;50.20
40289;DHT22;28991;52.028;5.526;2022-11-04T08:55:07;21.40;50.20
40289;DHT22;28991;52.028;5.526;2022-11-04T08:57:33;21.40;50.30
40289;DHT22;28991;52.028;5.526;2022-11-04T08:59:58;21.30;50.40
40289;DHT22;28991;52.028;5.526;2022-11-04T09:02:24;21.30;50.50
40289;DHT22;28991;52.028;5.526;2022-11-04T09:04:50;21.30;50.50
40289;DHT22;28991;52.028;5.526;2022-11-04T09:07:15;21.30;50.50
40289;DHT22;28991;52.028;5.526;2022-11-04T09:09:41;21.20;50.60
40289;DHT22;28991;52.028;5.526;2022-11-04T09:12:08;21.10;50.60
40289;DHT22;28991;52.028;5.526;2022-11-04T09:14:34;21.20;50.70
40289;DHT22;28991;52.028;5.526;2022-11-04T09:16:59;21.20;50.70
40289;DHT22;28991;52.028;5.526;2022-11-04T09:19:25;21.20;50.80
40289;DHT22;28991;52.028;5.526;2022-11-04T09:21:50;21.20;50.70
40289;DHT22;28991;52.028;5.526;2022-11-04T09:24:16;21.10;50.60
40289;DHT22;28991;52.028;5.526;2022-11-04T09:26:41;21.90;51.10
40289;DHT22;28991;52.028;5.526;2022-11-04T09:29:08;21.10;50.50
40289;DHT22;28991;52.028;5.526;2022-11-04T09:31:34;21.10;50.80
40289;DHT22;28991;52.028;5.526;2022-11-04T09:33:59;21.60;51.20
40289;DHT22;28991;52.028;5.526;2022-11-04T09:36:25;21.10;51.00
40289;DHT22;28991;52.028;5.526;2022-11-04T09:38:51;21.10;51.10
40289;DHT22;28991;52.028;5.526;2022-11-04T09:46:26;21.00;51.20
40289;DHT22;28991;52.028;5.526;2022-11-04T09:48:55;21.00;51.40
40289;DHT22;28991;52.028;5.526;2022-11-04T09:51:21;21.00;51.30
40289;DHT22;28991;52.028;5.526;2022-11-04T09:53:49;20.90;51.30
40289;DHT22;28991;52.028;5.526;2022-11-04T09:56:17;21.00;51.60
40289;DHT22;28991;52.028;5.526;2022-11-04T09:58:44;21.00;51.50
40289;DHT22;28991;52.028;5.526;2022-11-04T10:01:13;21.30;51.90
40289;DHT22;28991;52.028;5.526;2022-11-04T10:11:02;21.00;51.70
40289;DHT22;28991;52.028;5.526;2022-11-04T10:16:24;21.00;51.70
40289;DHT22;28991;52.028;5.526;2022-11-04T10:18:54;21.00;51.80
40289;DHT22;28991;52.028;5.526;2022-11-04T10:24:11;21.00;51.60
40289;DHT22;28991;52.028;5.526;2022-11-04T10:26:52;21.00;51.50
40289;DHT22;28991;52.028;5.526;2022-11-04T10:29:26;21.00;51.50
40289;DHT22;28991;52.028;5.526;2022-11-04T10:31:53;21.00;51.70
40289;DHT22;28991;52.028;5.526;2022-11-04T10:36:51;21.00;51.50
40289;DHT22;28991;52.028;5.526;2022-11-04T10:39:22;21.10;51.80
40289;DHT22;28991;52.028;5.526;2022-11-04T10:41:49;21.10;51.80
40289;DHT22;28991;52.028;5.526;2022-11-04T10:44:17;21.10;51.80
40289;DHT22;28991;52.028;5.526;2022-11-04T10:51:50;21.20;51.80
40289;DHT22;28991;52.028;5.526;2022-11-04T10:54:16;21.10;51.70
40289;DHT22;28991;52.028;5.526;2022-11-04T10:59:26;21.20;51.70
40289;DHT22;28991;52.028;5.526;2022-11-04T11:01:57;21.20;51.70
40289;DHT22;28991;52.028;5.526;2022-11-04T11:04:27;21.20;51.80
40289;DHT22;28991;52.028;5.526;2022-11-04T11:06:54;21.10;51.80
40289;DHT22;28991;52.028;5.526;2022-11-04T11:09:20;21.10;51.70
40289;DHT22;28991;52.028;5.526;2022-11-04T11:11:50;21.10;51.80
40289;DHT22;28991;52.028;5.526;2022-11-04T11:16:45;21.10;51.90
40289;DHT22;28991;52.028;5.526;2022-11-04T11:21:41;21.10;51.80
40289;DHT22;28991;52.028;5.526;2022-11-04T11:24:29;21.10;51.80
40289;DHT22;28991;52.028;5.526;2022-11-04T11:26:55;21.00;51.80
40289;DHT22;28991;52.028;5.526;2022-11-04T11:31:50;21.10;52.10
40289;DHT22;28991;52.028;5.526;2022-11-04T11:34:30;21.20;52.10
40289;DHT22;28991;52.028;5.526;2022-11-04T11:36:56;21.10;52.00
40289;DHT22;28991;52.028;5.526;2022-11-04T11:39:23;21.10;52.00
40289;DHT22;28991;52.028;5.526;2022-11-04T11:44:32;21.10;52.30
40289;DHT22;28991;52.028;5.526;2022-11-04T11:47:03;21.20;51.90
40289;DHT22;28991;52.028;5.526;2022-11-04T11:49:38;21.20;51.80
40289;DHT22;28991;52.028;5.526;2022-11-04T11:52:24;21.20;51.70
40289;DHT22;28991;52.028;5.526;2022-11-04T11:55:36;21.20;51.60
40289;DHT22;28991;52.028;5.526;2022-11-04T11:57:46;21.20;51.70
40289;DHT22;28991;52.028;5.526;2022-11-04T12:00:14;21.20;51.60
40289;DHT22;28991;52.028;5.526;2022-11-04T12:05:35;21.20;51.60
40289;DHT22;28991;52.028;5.526;2022-11-04T12:10:49;21.20;51.70
40289;DHT22;28991;52.028;5.526;2022-11-04T12:13:26;21.20;51.80
40289;DHT22;28991;52.028;5.526;2022-11-04T12:21:27;21.20;51.80
40289;DHT22;28991;52.028;5.526;2022-11-04T12:26:44;21.20;51.70
40289;DHT22;28991;52.028;5.526;2022-11-04T12:37:16;21.90;52.20
40289;DHT22;28991;52.028;5.526;2022-11-04T12:39:52;21.20;51.70
40289;DHT22;28991;52.028;5.526;2022-11-04T12:42:34;21.20;51.80
40289;DHT22;28991;52.028;5.526;2022-11-04T12:47:36;21.00;51.80
40289;DHT22;28991;52.028;5.526;2022-11-04T12:50:11;21.20;51.90
40289;DHT22;28991;52.028;5.526;2022-11-04T13:00:13;21.20;51.90
40289;DHT22;28991;52.028;5.526;2022-11-04T13:02:44;21.20;51.90
40289;DHT22;28991;52.028;5.526;2022-11-04T13:07:56;21.20;52.00
40289;DHT22;28991;52.028;5.526;2022-11-04T13:10:29;21.20;52.10
40289;DHT22;28991;52.028;5.526;2022-11-04T13:12:56;21.20;52.10
40289;DHT22;28991;52.028;5.526;2022-11-04T13:15:25;21.20;52.10
40289;DHT22;28991;52.028;5.526;2022-11-04T13:17:59;21.20;52.20
40289;DHT22;28991;52.028;5.526;2022-11-04T13:20:33;21.20;52.20
40289;DHT22;28991;52.028;5.526;2022-11-04T13:23:01;21.20;52.30
40289;DHT22;28991;52.028;5.526;2022-11-04T13:27:54;21.30;52.40
40289;DHT22;28991;52.028;5.526;2022-11-04T13:32:47;21.10;52.40
40289;DHT22;28991;52.028;5.526;2022-11-04T13:35:25;21.10;52.40
40289;DHT22;28991;52.028;5.526;2022-11-04T13:38:01;21.20;52.40
40289;DHT22;28991;52.028;5.526;2022-11-04T13:40:53;21.10;52.40
40289;DHT22;28991;52.028;5.526;2022-11-04T13:46:02;21.20;52.50
40289;DHT22;28991;52.028;5.526;2022-11-04T13:48:28;21.10;52.40
40289;DHT22;28991;52.028;5.526;2022-11-04T13:53:38;21.10;52.60
40289;DHT22;28991;52.028;5.526;2022-11-04T13:56:04;21.10;52.60
40289;DHT22;28991;52.028;5.526;2022-11-04T13:58:31;21.10;52.60
40289;DHT22;28991;52.028;5.526;2022-11-04T14:01:11;20.90;52.30
40289;DHT22;28991;52.028;5.526;2022-11-04T14:09:29;21.10;53.00
40289;DHT22;28991;52.028;5.526;2022-11-04T14:14:45;21.10;52.30
40289;DHT22;28991;52.028;5.526;2022-11-04T14:24:56;21.10;51.70
40289;DHT22;28991;52.028;5.526;2022-11-04T14:27:37;21.00;51.60
40289;DHT22;28991;52.028;5.526;2022-11-04T14:30:03;21.10;51.30
40289;DHT22;28991;52.028;5.526;2022-11-04T14:32:34;21.10;51.20
40289;DHT22;28991;52.028;5.526;2022-11-04T14:35:03;21.20;51.00
40289;DHT22;28991;52.028;5.526;2022-11-04T14:37:35;21.10;50.60
40289;DHT22;28991;52.028;5.526;2022-11-04T14:40:03;21.20;50.60
40289;DHT22;28991;52.028;5.526;2022-11-04T14:42:47;21.10;50.70
40289;DHT22;28991;52.028;5.526;2022-11-04T14:45:21;21.10;50.10
40289;DHT22;28991;52.028;5.526;2022-11-04T14:47:48;21.10;50.10
40289;DHT22;28991;52.028;5.526;2022-11-04T14:50:33;21.10;49.90
40289;DHT22;28991;52.028;5.526;2022-11-04T14:52:59;21.10;49.80
40289;DHT22;28991;52.028;5.526;2022-11-04T14:55:27;21.30;50.10
40289;DHT22;28991;52.028;5.526;2022-11-04T14:58:35;21.00;50.10
40289;DHT22;28991;52.028;5.526;2022-11-04T15:05:39;21.00;49.50
40289;DHT22;28991;52.028;5.526;2022-11-04T15:10:55;20.90;49.60
40289;DHT22;28991;52.028;5.526;2022-11-04T15:13:21;20.90;49.60
40289;DHT22;28991;52.028;5.526;2022-11-04T15:15:46;20.90;49.30
40289;DHT22;28991;52.028;5.526;2022-11-04T15:18:16;20.90;49.70
40289;DHT22;28991;52.028;5.526;2022-11-04T15:20:45;20.90;49.20
40289;DHT22;28991;52.028;5.526;2022-11-04T15:23:11;20.90;49.20
40289;DHT22;28991;52.028;5.526;2022-11-04T15:25:42;20.90;49.10
40289;DHT22;28991;52.028;5.526;2022-11-04T15:28:14;20.90;48.70
40289;DHT22;28991;52.028;5.526;2022-11-04T15:30:41;20.90;49.30
40289;DHT22;28991;52.028;5.526;2022-11-04T15:33:11;21.00;49.40
40289;DHT22;28991;52.028;5.526;2022-11-04T15:35:39;21.00;49.50
40289;DHT22;28991;52.028;5.526;2022-11-04T15:38:08;20.90;49.70
40289;DHT22;28991;52.028;5.526;2022-11-04T15:40:35;20.90;49.70
40289;DHT22;28991;52.028;5.526;2022-11-04T15:43:00;20.90;49.90
40289;DHT22;28991;52.028;5.526;2022-11-04T15:45:34;20.90;50.00
40289;DHT22;28991;52.028;5.526;2022-11-04T15:48:20;20.80;50.00
40289;DHT22;28991;52.028;5.526;2022-11-04T15:50:46;20.80;50.00
40289;DHT22;28991;52.028;5.526;2022-11-04T15:53:13;20.80;50.10
40289;DHT22;28991;52.028;5.526;2022-11-04T15:55:40;20.80;50.20
40289;DHT22;28991;52.028;5.526;2022-11-04T15:58:07;21.20;50.50
40289;DHT22;28991;52.028;5.526;2022-11-04T16:00:34;20.70;50.40
40289;DHT22;28991;52.028;5.526;2022-11-04T16:03:00;20.70;50.40
40289;DHT22;28991;52.028;5.526;2022-11-04T16:05:29;20.60;50.50
40289;DHT22;28991;52.028;5.526;2022-11-04T16:08:13;20.70;50.60
40289;DHT22;28991;52.028;5.526;2022-11-04T16:10:39;20.50;50.50
40289;DHT22;28991;52.028;5.526;2022-11-04T16:15:50;20.60;50.70
40289;DHT22;28991;52.028;5.526;2022-11-04T16:20:47;20.60;50.80
40289;DHT22;28991;52.028;5.526;2022-11-04T16:23:15;20.70;50.90
40289;DHT22;28991;52.028;5.526;2022-11-04T16:25:42;20.50;50.80
40289;DHT22;28991;52.028;5.526;2022-11-04T16:28:15;20.50;50.90
40289;DHT22;28991;52.028;5.526;2022-11-04T16:30:54;20.50;50.90
40289;DHT22;28991;52.028;5.526;2022-11-04T16:33:19;20.50;51.00
40289;DHT22;28991;52.028;5.526;2022-11-04T16:35:45;20.50;51.10
40289;DHT22;28991;52.028;5.526;2022-11-04T16:38:11;20.40;51.00
40289;DHT22;28991;52.028;5.526;2022-11-04T16:40:36;20.60;51.20
40289;DHT22;28991;52.028;5.526;2022-11-04T16:43:02;20.40;51.10
40289;DHT22;28991;52.028;5.526;2022-11-04T16:45:34;20.40;51.20
40289;DHT22;28991;52.028;5.526;2022-11-04T16:48:00;20.40;51.20
40289;DHT22;28991;52.028;5.526;2022-11-04T16:50:26;20.40;51.30
40289;DHT22;28991;52.028;5.526;2022-11-04T16:52:52;20.40;51.30
40289;DHT22;28991;52.028;5.526;2022-11-04T16:55:18;20.40;51.30
40289;DHT22;28991;52.028;5.526;2022-11-04T16:57:44;20.50;51.50
40289;DHT22;28991;52.028;5.526;2022-11-04T17:00:16;20.40;51.40
40289;DHT22;28991;52.028;5.526;2022-11-04T17:02:42;20.40;51.50
40289;DHT22;28991;52.028;5.526;2022-11-04T17:05:08;20.50;51.60
40289;DHT22;28991;52.028;5.526;2022-11-04T17:07:38;20.40;51.60
40289;DHT22;28991;52.028;5.526;2022-11-04T17:10:04;20.40;51.60
40289;DHT22;28991;52.028;5.526;2022-11-04T17:12:30;20.30;51.60
40289;DHT22;28991;52.028;5.526;2022-11-04T17:14:56;20.30;51.70
40289;DHT22;28991;52.028;5.526;2022-11-04T17:17:21;20.40;51.80
40289;DHT22;28991;52.028;5.526;2022-11-04T17:19:47;20.30;51.70
40289;DHT22;28991;52.028;5.526;2022-11-04T17:22:12;20.30;51.80
40289;DHT22;28991;52.028;5.526;2022-11-04T17:24:38;20.30;51.80
40289;DHT22;28991;52.028;5.526;2022-11-04T17:27:03;20.30;51.90
40289;DHT22;28991;52.028;5.526;2022-11-04T17:29:29;21.00;52.30
40289;DHT22;28991;52.028;5.526;2022-11-04T17:31:55;20.30;52.00
40289;DHT22;28991;52.028;5.526;2022-11-04T17:34:21;20.20;51.90
40289;DHT22;28991;52.028;5.526;2022-11-04T17:36:53;20.60;52.20
40289;DHT22;28991;52.028;5.526;2022-11-04T17:39:18;20.30;52.60
40289;DHT22;28991;52.028;5.526;2022-11-04T17:41:44;20.30;52.20
40289;DHT22;28991;52.028;5.526;2022-11-04T17:44:28;20.30;52.20
40289;DHT22;28991;52.028;5.526;2022-11-04T17:46:53;20.30;52.20
40289;DHT22;28991;52.028;5.526;2022-11-04T17:49:19;20.20;52.20
40289;DHT22;28991;52.028;5.526;2022-11-04T17:51:46;20.30;52.30
40289;DHT22;28991;52.028;5.526;2022-11-04T17:54:12;20.30;52.30
40289;DHT22;28991;52.028;5.526;2022-11-04T17:56:38;20.30;52.30
40289;DHT22;28991;52.028;5.526;2022-11-04T17:59:04;20.90;52.60
40289;DHT22;28991;52.028;5.526;2022-11-04T18:01:31;20.60;52.50
40289;DHT22;28991;52.028;5.526;2022-11-04T18:03:57;20.40;52.40
40289;DHT22;28991;52.028;5.526;2022-11-04T18:06:22;20.30;52.40
40289;DHT22;28991;52.028;5.526;2022-11-04T18:08:52;20.60;52.50
40289;DHT22;28991;52.028;5.526;2022-11-04T18:11:18;20.30;52.40
40289;DHT22;28991;52.028;5.526;2022-11-04T18:14:03;20.20;52.40